Time;durP1;ratioP1;P1;durP2;ratioP2;P2;SDS_P1;SDS_P2;PMS_P1;PMS_P2;Temp;Humidity;BMP_temperature;BMP_pressure;BME280_temperature;BME280_humidity;BME280_pressure;Samples;Min_cycle;Max_cycle;Signal;HPM_P1;HPM_P2
2022/12/02 00:01:36;;;;;;;74.20;34.75;;;;;;;;;;4863639;29;20522;-89
2022/12/02 00:04:05;;;;;;;66.82;32.55;;;;;;;;;;4863883;29;20463;-89
2022/12/02 00:06:32;;;;;;;71.07;33.75;;;;;;;;;;4863914;29;20479;-90
2022/12/02 00:09:17;;;;;;;64.28;31.67;;;;;;;;;;4863727;29;20026;-89
2022/12/02 00:11:44;;;;;;;78.28;35.70;;;;;;;;;;4880175;29;20037;-90
2022/12/02 00:14:15;;;;;;;81.85;37.00;;;;;;;;;;4879917;29;20550;-90
2022/12/02 00:16:41;;;;;;;74.57;34.50;;;;;;;;;;4863612;29;20048;-90
2022/12/02 00:19:07;;;;;;;83.43;38.65;;;;;;;;;;4879921;29;20116;-89
2022/12/02 00:21:33;;;;;;;87.75;39.35;;;;;;;;;;4879997;29;20378;-90
2022/12/02 00:23:59;;;;;;;80.00;35.55;;;;;;;;;;4863392;29;20059;-90
2022/12/02 00:26:25;;;;;;;77.00;35.55;;;;;;;;;;4863497;29;20112;-89
2022/12/02 00:28:51;;;;;;;84.93;38.33;;;;;;;;;;4863418;29;20093;-89
2022/12/02 00:31:19;;;;;;;73.25;35.63;;;;;;;;;;4863923;29;20039;-89
2022/12/02 00:33:45;;;;;;;76.40;34.03;;;;;;;;;;4863397;29;20037;-89
2022/12/02 00:36:11;;;;;;;64.30;31.90;;;;;;;;;;4863811;29;20035;-89
2022/12/02 00:38:37;;;;;;;66.90;32.10;;;;;;;;;;4863349;29;20424;-90
2022/12/02 00:41:04;;;;;;;65.90;31.75;;;;;;;;;;4863301;29;20037;-89
2022/12/02 00:46:33;;;;;;;75.65;34.70;;;;;;;;;;4879323;29;20085;-88
2022/12/02 00:49:01;;;;;;;85.22;38.95;;;;;;;;;;4866195;29;20132;-89
2022/12/02 00:51:27;;;;;;;69.15;32.03;;;;;;;;;;4866909;29;20029;-90
2022/12/02 00:53:54;;;;;;;71.68;33.50;;;;;;;;;;4866721;29;20136;-89
2022/12/02 00:56:20;;;;;;;69.28;33.00;;;;;;;;;;4883128;29;20063;-89
2022/12/02 00:58:46;;;;;;;72.38;33.90;;;;;;;;;;4866807;29;20033;-90
2022/12/02 01:01:12;;;;;;;72.65;32.53;;;;;;;;;;4867128;29;20093;-90
2022/12/02 01:03:39;;;;;;;69.78;33.95;;;;;;;;;;4883486;29;20029;-90
2022/12/02 01:06:05;;;;;;;67.45;32.85;;;;;;;;;;4866768;29;20062;-90
2022/12/02 01:08:31;;;;;;;68.03;31.73;;;;;;;;;;4866890;29;20486;-90
2022/12/02 01:10:57;;;;;;;64.32;30.92;;;;;;;;;;4866544;29;20032;-90
2022/12/02 01:13:25;;;;;;;66.10;32.42;;;;;;;;;;4866365;29;20096;-90
2022/12/02 01:15:51;;;;;;;68.50;32.35;;;;;;;;;;4866466;29;20021;-90
2022/12/02 01:18:18;;;;;;;67.53;30.90;;;;;;;;;;4866284;29;20173;-90
2022/12/02 01:20:44;;;;;;;67.18;32.38;;;;;;;;;;4866363;29;20062;-90
2022/12/02 01:23:10;;;;;;;66.72;34.15;;;;;;;;;;4866649;29;20033;-91
2022/12/02 01:25:37;;;;;;;68.95;31.63;;;;;;;;;;4866789;29;20481;-90
2022/12/02 01:28:03;;;;;;;67.47;31.70;;;;;;;;;;4866326;29;20044;-90
2022/12/02 01:30:29;;;;;;;65.32;31.67;;;;;;;;;;4866098;29;20033;-89
2022/12/02 01:32:55;;;;;;;67.45;31.83;;;;;;;;;;4865995;29;20075;-90
2022/12/02 01:35:21;;;;;;;79.88;35.85;;;;;;;;;;4866178;29;20057;-90
2022/12/02 01:37:47;;;;;;;89.90;40.55;;;;;;;;;;4866180;29;20094;-89
2022/12/02 01:40:14;;;;;;;81.80;36.35;;;;;;;;;;4865740;29;20121;-90
2022/12/02 01:42:41;;;;;;;71.22;33.25;;;;;;;;;;4867390;29;20062;-89
2022/12/02 01:45:08;;;;;;;71.28;32.13;;;;;;;;;;4868107;29;20068;-89
2022/12/02 01:47:35;;;;;;;68.95;33.30;;;;;;;;;;4866285;29;20028;-89
2022/12/02 01:50:01;;;;;;;66.90;30.65;;;;;;;;;;4865696;29;20124;-90
2022/12/02 01:52:27;;;;;;;57.75;27.27;;;;;;;;;;4865661;29;20033;-89
2022/12/02 01:54:53;;;;;;;52.90;25.67;;;;;;;;;;4865716;29;20025;-91
2022/12/02 01:57:21;;;;;;;59.22;26.98;;;;;;;;;;4865659;29;20077;-90
2022/12/02 01:59:48;;;;;;;63.13;30.13;;;;;;;;;;4881397;29;20103;-90
2022/12/02 02:02:34;;;;;;;60.15;29.38;;;;;;;;;;4865724;29;20025;-91
2022/12/02 02:05:02;;;;;;;69.00;30.85;;;;;;;;;;4865799;29;20037;-90
2022/12/02 02:07:29;;;;;;;70.32;31.00;;;;;;;;;;4865586;29;20033;-91
2022/12/02 02:09:56;;;;;;;64.50;29.98;;;;;;;;;;4865508;29;20060;-90
2022/12/02 02:12:23;;;;;;;59.83;28.98;;;;;;;;;;4865386;29;20040;-90
2022/12/02 02:14:49;;;;;;;56.88;28.77;;;;;;;;;;4865293;29;20222;-91
2022/12/02 02:17:15;;;;;;;62.22;29.38;;;;;;;;;;4865448;29;20032;-90
2022/12/02 02:19:43;;;;;;;58.67;29.27;;;;;;;;;;4865236;29;20040;-90
2022/12/02 02:22:21;;;;;;;63.25;29.17;;;;;;;;;;4865321;29;20069;-90
2022/12/02 02:24:47;;;;;;;57.88;28.98;;;;;;;;;;4865470;29;20029;-89
2022/12/02 02:27:14;;;;;;;54.13;27.70;;;;;;;;;;4865337;29;20387;-90
2022/12/02 02:32:22;;;;;;;61.20;28.52;;;;;;;;;;5038907;23;20117;-91
2022/12/02 02:37:24;;;;;;;56.17;26.95;;;;;;;;;;5075213;23;20057;-90
2022/12/02 02:39:51;;;;;;;55.97;27.20;;;;;;;;;;4865143;29;20071;-90
2022/12/02 02:42:17;;;;;;;62.53;29.23;;;;;;;;;;4865018;29;20029;-90
2022/12/02 02:44:43;;;;;;;61.13;28.73;;;;;;;;;;4864909;29;20041;-89
2022/12/02 02:47:09;;;;;;;62.03;29.42;;;;;;;;;;4865098;29;20033;-90
2022/12/02 02:49:36;;;;;;;64.10;29.60;;;;;;;;;;4865217;29;20044;-90
2022/12/02 02:52:02;;;;;;;63.22;29.67;;;;;;;;;;4864696;29;20029;-91
2022/12/02 02:54:28;;;;;;;70.10;31.20;;;;;;;;;;4864612;29;20033;-89
2022/12/02 02:56:54;;;;;;;62.55;29.23;;;;;;;;;;4864955;29;20029;-90
2022/12/02 02:59:20;;;;;;;60.65;27.90;;;;;;;;;;4864593;29;20036;-90
2022/12/02 03:01:47;;;;;;;59.95;28.25;;;;;;;;;;4864692;29;20119;-89
2022/12/02 03:04:15;;;;;;;65.50;28.58;;;;;;;;;;4864351;29;20033;-90
2022/12/02 03:06:42;;;;;;;60.88;29.42;;;;;;;;;;4864360;29;20037;-90
2022/12/02 03:09:10;;;;;;;60.58;29.73;;;;;;;;;;4864458;29;20120;-88
2022/12/02 03:11:37;;;;;;;57.33;27.45;;;;;;;;;;4864442;29;20123;-90
2022/12/02 03:14:04;;;;;;;56.10;27.95;;;;;;;;;;4864427;29;20048;-90
2022/12/02 03:16:30;;;;;;;56.97;26.55;;;;;;;;;;4864441;29;20051;-90
2022/12/02 03:18:57;;;;;;;53.05;26.90;;;;;;;;;;4864695;29;20128;-90
2022/12/02 03:21:24;;;;;;;54.83;26.15;;;;;;;;;;4867929;29;20052;-91
2022/12/02 03:23:51;;;;;;;50.47;25.50;;;;;;;;;;4875547;29;20554;-89
2022/12/02 03:26:18;;;;;;;51.38;25.25;;;;;;;;;;4867817;29;20027;-89
2022/12/02 03:28:45;;;;;;;56.38;27.60;;;;;;;;;;4863984;29;20033;-89
2022/12/02 03:31:12;;;;;;;51.58;26.00;;;;;;;;;;4864184;29;20044;-90
2022/12/02 03:33:38;;;;;;;48.72;24.25;;;;;;;;;;4864051;29;20384;-90
2022/12/02 03:36:05;;;;;;;50.75;24.77;;;;;;;;;;4863594;29;20051;-89
2022/12/02 03:38:32;;;;;;;47.10;24.60;;;;;;;;;;4864225;29;20432;-90
2022/12/02 03:40:59;;;;;;;50.33;25.95;;;;;;;;;;4864190;29;20025;-90
2022/12/02 03:43:25;;;;;;;51.13;25.48;;;;;;;;;;4864154;29;20542;-90
2022/12/02 03:45:51;;;;;;;48.45;24.60;;;;;;;;;;4863892;29;20098;-90
2022/12/02 03:48:20;;;;;;;48.30;24.38;;;;;;;;;;4864120;29;20025;-90
2022/12/02 03:50:47;;;;;;;50.90;23.73;;;;;;;;;;4863923;29;20128;-89
2022/12/02 03:53:14;;;;;;;46.97;24.00;;;;;;;;;;4863571;29;20033;-90
2022/12/02 03:55:40;;;;;;;47.35;24.65;;;;;;;;;;4864129;29;20025;-89
2022/12/02 03:58:07;;;;;;;46.47;24.48;;;;;;;;;;4864276;29;20088;-91
2022/12/02 04:00:34;;;;;;;51.25;24.65;;;;;;;;;;4864000;29;20071;-91
2022/12/02 04:03:00;;;;;;;48.80;23.42;;;;;;;;;;4863811;29;20367;-91
2022/12/02 04:05:26;;;;;;;45.10;24.15;;;;;;;;;;4863611;29;20032;-89
2022/12/02 04:07:52;;;;;;;50.38;25.25;;;;;;;;;;4863662;29;20398;-90
2022/12/02 04:10:18;;;;;;;50.58;24.15;;;;;;;;;;4864521;29;20044;-91
2022/12/02 04:12:44;;;;;;;48.88;25.90;;;;;;;;;;4865195;29;20506;-90
2022/12/02 04:15:11;;;;;;;54.85;25.50;;;;;;;;;;4864128;29;20491;-90
2022/12/02 04:17:37;;;;;;;56.90;27.33;;;;;;;;;;4861218;29;20498;-90
2022/12/02 04:20:05;;;;;;;149.25;47.72;;;;;;;;;;4862392;29;20466;-90
2022/12/02 04:22:31;;;;;;;114.47;41.00;;;;;;;;;;4864455;29;20032;-92
2022/12/02 04:25:31;;;;;;;112.57;40.22;;;;;;;;;;4867559;29;20039;-89
2022/12/02 04:27:57;;;;;;;72.72;31.20;;;;;;;;;;4867282;29;20483;-90
2022/12/02 04:30:23;;;;;;;79.18;33.13;;;;;;;;;;4867193;29;20033;-88
2022/12/02 04:32:49;;;;;;;64.97;31.13;;;;;;;;;;4867276;29;20040;-90
2022/12/02 04:35:15;;;;;;;66.43;31.23;;;;;;;;;;4867203;29;20047;-89
2022/12/02 04:37:42;;;;;;;78.72;34.35;;;;;;;;;;4867067;29;20059;-89
2022/12/02 04:40:08;;;;;;;71.93;31.50;;;;;;;;;;4867431;29;20039;-90
2022/12/02 04:42:34;;;;;;;66.60;31.00;;;;;;;;;;4867284;29;20033;-88
2022/12/02 04:45:01;;;;;;;65.65;31.02;;;;;;;;;;4867161;29;20029;-90
2022/12/02 04:47:27;;;;;;;63.00;30.33;;;;;;;;;;4866997;29;20029;-90
2022/12/02 04:49:53;;;;;;;66.80;31.92;;;;;;;;;;4866811;29;20116;-89
2022/12/02 04:52:19;;;;;;;57.55;28.58;;;;;;;;;;4867050;29;20033;-90
2022/12/02 04:54:46;;;;;;;55.90;28.20;;;;;;;;;;4866880;29;20124;-89
2022/12/02 04:57:12;;;;;;;58.13;28.65;;;;;;;;;;4867032;29;20025;-90
2022/12/02 04:59:38;;;;;;;62.05;29.00;;;;;;;;;;4885304;29;20033;-90
2022/12/02 05:02:04;;;;;;;61.35;30.73;;;;;;;;;;4868754;29;20025;-91
2022/12/02 05:04:30;;;;;;;60.40;28.52;;;;;;;;;;4866865;29;20468;-89
2022/12/02 05:10:00;;;;;;;56.53;26.10;;;;;;;;;;5535354;23;20038;-89
2022/12/02 05:12:26;;;;;;;55.50;27.85;;;;;;;;;;4865900;29;20628;-88
2022/12/02 05:17:24;;;;;;;56.80;29.10;;;;;;;;;;4881892;29;20053;-89
2022/12/02 05:19:51;;;;;;;58.03;28.60;;;;;;;;;;4866380;29;20116;-90
2022/12/02 05:22:17;;;;;;;62.92;29.70;;;;;;;;;;4866568;29;20029;-89
2022/12/02 05:24:46;;;;;;;58.38;28.65;;;;;;;;;;4866365;29;20033;-91
2022/12/02 05:27:12;;;;;;;58.70;28.25;;;;;;;;;;4866153;29;20060;-89
2022/12/02 05:29:38;;;;;;;55.30;28.83;;;;;;;;;;4866173;29;20390;-89
2022/12/02 05:32:05;;;;;;;57.90;29.20;;;;;;;;;;4882570;29;20033;-90
2022/12/02 05:34:32;;;;;;;52.75;27.65;;;;;;;;;;4866192;29;20045;-90
2022/12/02 05:36:58;;;;;;;54.00;26.58;;;;;;;;;;4865912;29;20033;-90
2022/12/02 05:39:24;;;;;;;60.50;30.85;;;;;;;;;;4866107;29;20543;-89
2022/12/02 05:41:50;;;;;;;58.50;29.77;;;;;;;;;;4866169;29;20471;-90
2022/12/02 05:44:23;;;;;;;61.03;31.63;;;;;;;;;;4866050;29;20494;-89
2022/12/02 05:46:50;;;;;;;;;;;;;;;;;;4866750;29;20207;-89
2022/12/02 05:49:18;;;;;;;62.05;29.17;;;;;;;;;;4881436;29;19989;-90
2022/12/02 05:51:45;;;;;;;57.67;28.75;;;;;;;;;;4865737;29;20085;-91
2022/12/02 05:54:17;;;;;;;54.38;28.17;;;;;;;;;;4865876;29;20045;-89
2022/12/02 05:56:43;;;;;;;57.15;28.95;;;;;;;;;;4866319;29;20029;-92
2022/12/02 05:59:13;;;;;;;56.63;29.48;;;;;;;;;;4865887;29;20075;-90
2022/12/02 06:01:39;;;;;;;58.28;29.60;;;;;;;;;;4865927;29;20025;-90
2022/12/02 06:04:26;;;;;;;55.58;27.80;;;;;;;;;;4865458;29;20033;-88
2022/12/02 06:06:53;;;;;;;57.38;28.77;;;;;;;;;;4865260;29;20200;-91
2022/12/02 06:09:20;;;;;;;58.97;28.85;;;;;;;;;;4865574;29;20071;-91
2022/12/02 06:11:47;;;;;;;55.17;27.52;;;;;;;;;;4865509;29;20494;-92
2022/12/02 06:14:15;;;;;;;55.50;28.17;;;;;;;;;;4865659;29;20530;-91
2022/12/02 06:16:43;;;;;;;62.03;31.13;;;;;;;;;;4865427;29;20512;-91
2022/12/02 06:19:20;;;;;;;61.60;30.10;;;;;;;;;;4865629;29;20025;-91
2022/12/02 06:21:46;;;;;;;62.20;29.90;;;;;;;;;;4865614;29;20040;-92
2022/12/02 06:24:12;;;;;;;59.70;29.42;;;;;;;;;;4865182;29;20029;-90
2022/12/02 06:26:38;;;;;;;57.67;28.85;;;;;;;;;;4865254;29;20029;-91
2022/12/02 06:29:04;;;;;;;57.20;29.15;;;;;;;;;;4865337;29;20033;-91
2022/12/02 06:31:31;;;;;;;53.47;27.77;;;;;;;;;;4864534;29;20165;-89
2022/12/02 06:33:58;;;;;;;54.38;28.55;;;;;;;;;;4864336;29;20073;-89
2022/12/02 06:36:26;;;;;;;60.65;28.08;;;;;;;;;;4880286;29;20040;-89
2022/12/02 06:38:57;;;;;;;62.05;30.42;;;;;;;;;;4880534;29;20032;-88
2022/12/02 06:41:25;;;;;;;57.00;29.42;;;;;;;;;;4880457;29;20029;-89
2022/12/02 06:46:36;;;;;;;54.83;27.90;;;;;;;;;;4881122;29;20048;-88
2022/12/02 06:49:12;;;;;;;61.83;29.75;;;;;;;;;;4880098;29;20039;-88
2022/12/02 06:51:38;;;;;;;54.50;27.92;;;;;;;;;;4880103;29;20120;-87
2022/12/02 06:54:04;;;;;;;52.35;28.38;;;;;;;;;;4878808;29;20045;-86
2022/12/02 06:56:31;;;;;;;58.15;29.85;;;;;;;;;;4879205;29;20049;-88
2022/12/02 06:59:01;;;;;;;57.65;29.88;;;;;;;;;;4879238;29;20387;-86
2022/12/02 07:01:40;;;;;;;55.15;27.80;;;;;;;;;;4880153;29;20017;-87
2022/12/02 07:04:25;;;;;;;56.58;28.85;;;;;;;;;;4879125;29;20104;-86
2022/12/02 07:06:53;;;;;;;61.00;29.27;;;;;;;;;;4863551;29;20482;-87
2022/12/02 07:09:22;;;;;;;56.15;29.10;;;;;;;;;;4863789;29;20037;-87
2022/12/02 07:11:49;;;;;;;53.70;28.40;;;;;;;;;;4863712;29;20029;-87
2022/12/02 07:14:41;;;;;;;49.70;26.13;;;;;;;;;;4862914;29;20045;-86
2022/12/02 07:17:10;;;;;;;56.85;28.27;;;;;;;;;;4876678;29;20080;-87
2022/12/02 07:19:38;;;;;;;54.42;28.10;;;;;;;;;;4863759;29;20039;-88
2022/12/02 07:22:12;;;;;;;56.97;28.00;;;;;;;;;;4863551;29;20033;-87
2022/12/02 07:24:39;;;;;;;54.80;28.50;;;;;;;;;;4863468;29;20037;-87
2022/12/02 07:27:13;;;;;;;57.15;28.23;;;;;;;;;;4863277;29;20041;-87
2022/12/02 07:29:40;;;;;;;54.28;28.85;;;;;;;;;;4862635;29;20123;-87
2022/12/02 07:32:06;;;;;;;52.47;27.67;;;;;;;;;;4879485;29;20036;-86
2022/12/02 07:34:32;;;;;;;55.03;28.42;;;;;;;;;;4863457;29;20491;-88
2022/12/02 07:36:58;;;;;;;54.42;27.48;;;;;;;;;;4862163;29;20035;-87
2022/12/02 07:39:24;;;;;;;58.05;29.55;;;;;;;;;;4862334;29;20037;-88
2022/12/02 07:41:50;;;;;;;50.90;28.23;;;;;;;;;;4862972;29;20021;-88
2022/12/02 07:44:17;;;;;;;53.60;29.08;;;;;;;;;;4880675;29;20108;-89
2022/12/02 07:46:43;;;;;;;55.45;29.60;;;;;;;;;;4863288;29;20044;-87
2022/12/02 07:54:20;;;;;;;56.15;29.88;;;;;;;;;;4948599;23;20503;-87
2022/12/02 07:56:46;;;;;;;54.90;30.00;;;;;;;;;;4879060;29;20053;-87
2022/12/02 07:59:13;;;;;;;55.47;29.73;;;;;;;;;;4861994;29;20449;-88
2022/12/02 08:01:39;;;;;;;60.55;29.77;;;;;;;;;;4863307;29;20036;-91
2022/12/02 08:04:05;;;;;;;54.97;28.98;;;;;;;;;;4863648;29;20037;-90
2022/12/02 08:06:31;;;;;;;54.70;29.63;;;;;;;;;;4864322;29;20037;-88
2022/12/02 08:08:57;;;;;;;59.25;30.08;;;;;;;;;;4863221;29;20033;-92
2022/12/02 08:11:23;;;;;;;63.30;30.48;;;;;;;;;;4863302;29;20037;-87
2022/12/02 08:13:49;;;;;;;61.25;31.58;;;;;;;;;;4863404;29;20041;-88
2022/12/02 08:16:15;;;;;;;57.33;30.60;;;;;;;;;;4867065;29;20028;-89
2022/12/02 08:18:41;;;;;;;64.22;31.85;;;;;;;;;;4868166;29;20387;-85
2022/12/02 08:21:07;;;;;;;57.53;30.67;;;;;;;;;;4862735;29;20037;-87
2022/12/02 08:23:34;;;;;;;56.28;30.00;;;;;;;;;;4863458;29;20120;-89
2022/12/02 08:26:00;;;;;;;52.28;29.75;;;;;;;;;;4860626;29;20108;-89
2022/12/02 08:28:26;;;;;;;58.45;30.77;;;;;;;;;;4863362;29;20108;-90
2022/12/02 08:30:53;;;;;;;61.92;31.90;;;;;;;;;;4863619;29;20025;-89
2022/12/02 08:33:19;;;;;;;63.05;32.90;;;;;;;;;;4863121;29;20041;-89
2022/12/02 08:35:45;;;;;;;65.72;34.17;;;;;;;;;;4863523;29;20025;-90
2022/12/02 08:38:11;;;;;;;62.67;33.78;;;;;;;;;;4865596;29;20138;-90
2022/12/02 08:40:38;;;;;;;60.42;31.80;;;;;;;;;;4869139;29;20037;-89
2022/12/02 08:43:04;;;;;;;57.47;31.65;;;;;;;;;;4869211;29;20037;-89
2022/12/02 08:45:30;;;;;;;55.17;30.13;;;;;;;;;;4863082;29;20056;-88
2022/12/02 08:47:56;;;;;;;59.65;32.15;;;;;;;;;;4878354;29;20112;-88
2022/12/02 08:50:22;;;;;;;61.70;32.45;;;;;;;;;;4878865;29;20439;-88
2022/12/02 08:52:48;;;;;;;57.83;31.63;;;;;;;;;;4878277;29;20107;-89
2022/12/02 08:55:15;;;;;;;62.45;34.33;;;;;;;;;;4878554;29;20029;-91
2022/12/02 08:57:41;;;;;;;59.80;32.20;;;;;;;;;;4862720;29;20060;-87
2022/12/02 09:00:08;;;;;;;63.80;33.67;;;;;;;;;;4862759;29;20036;-90
2022/12/02 09:02:35;;;;;;;67.30;32.67;;;;;;;;;;4878823;29;20033;-87
2022/12/02 09:05:01;;;;;;;62.63;33.65;;;;;;;;;;4862555;29;20474;-87
2022/12/02 09:07:27;;;;;;;60.42;32.03;;;;;;;;;;4862108;29;20051;-90
2022/12/02 09:09:55;;;;;;;64.07;33.97;;;;;;;;;;4864981;29;20059;-89
2022/12/02 09:12:21;;;;;;;62.30;34.05;;;;;;;;;;4873137;29;20115;-89
2022/12/02 09:14:47;;;;;;;66.05;36.00;;;;;;;;;;4884518;29;20059;-88
2022/12/02 09:17:13;;;;;;;61.72;33.85;;;;;;;;;;4884429;29;20032;-87
2022/12/02 09:19:39;;;;;;;64.22;35.03;;;;;;;;;;4884070;29;20041;-89
2022/12/02 09:22:05;;;;;;;67.93;35.35;;;;;;;;;;4883609;29;20032;-86
2022/12/02 09:24:32;;;;;;;64.60;36.00;;;;;;;;;;4884072;29;20024;-88
2022/12/02 09:26:58;;;;;;;60.80;34.08;;;;;;;;;;4866594;29;20074;-90
2022/12/02 09:29:24;;;;;;;62.85;33.78;;;;;;;;;;4869462;29;20482;-88
2022/12/02 09:31:50;;;;;;;63.78;34.70;;;;;;;;;;4884327;29;20111;-91
2022/12/02 09:34:16;;;;;;;62.08;34.00;;;;;;;;;;4889550;29;20041;-86
2022/12/02 09:36:43;;;;;;;60.10;32.40;;;;;;;;;;4865210;29;20028;-88
2022/12/02 09:39:09;;;;;;;63.80;35.42;;;;;;;;;;4883095;29;20112;-88
2022/12/02 09:41:36;;;;;;;64.50;37.25;;;;;;;;;;4879591;29;20029;-88
2022/12/02 09:44:02;;;;;;;65.63;35.30;;;;;;;;;;4865469;29;20029;-88
2022/12/02 09:46:28;;;;;;;72.38;38.22;;;;;;;;;;4865756;29;20052;-89
2022/12/02 09:48:54;;;;;;;79.15;40.45;;;;;;;;;;4864821;29;20061;-87
2022/12/02 09:51:20;;;;;;;68.75;38.67;;;;;;;;;;4877279;29;20116;-90
2022/12/02 09:53:46;;;;;;;67.55;37.08;;;;;;;;;;4883181;29;20059;-88
2022/12/02 09:56:14;;;;;;;67.22;36.30;;;;;;;;;;4883807;29;20084;-87
2022/12/02 09:58:40;;;;;;;67.63;36.22;;;;;;;;;;4871965;29;20044;-87
2022/12/02 10:01:11;;;;;;;66.13;35.78;;;;;;;;;;4864941;29;20032;-89
2022/12/02 10:03:37;;;;;;;63.03;34.47;;;;;;;;;;4865088;29;20037;-88
2022/12/02 10:06:05;;;;;;;60.70;34.33;;;;;;;;;;4864913;29;20044;-88
2022/12/02 10:08:32;;;;;;;65.03;35.63;;;;;;;;;;4881054;29;20025;-90
2022/12/02 10:10:58;;;;;;;65.25;37.17;;;;;;;;;;4865596;29;20065;-87
2022/12/02 10:13:25;;;;;;;64.13;35.88;;;;;;;;;;4865335;29;20032;-87
2022/12/02 10:15:51;;;;;;;64.25;37.45;;;;;;;;;;4881504;29;20029;-89
2022/12/02 10:18:19;;;;;;;67.88;37.42;;;;;;;;;;4881759;29;20089;-90
2022/12/02 10:20:45;;;;;;;64.55;36.28;;;;;;;;;;4880246;29;20029;-87
2022/12/02 10:23:14;;;;;;;67.93;37.35;;;;;;;;;;4864222;29;20033;-90
2022/12/02 10:25:44;;;;;;;64.13;36.85;;;;;;;;;;4864363;29;20056;-89
2022/12/02 10:28:24;;;;;;;63.70;35.25;;;;;;;;;;4863692;29;20076;-88
2022/12/02 10:39:21;;;;;;;56.47;32.55;;;;;;;;;;5070022;23;20148;-88
2022/12/02 10:42:07;;;;;;;60.95;33.17;;;;;;;;;;4871396;29;20037;-86
2022/12/02 10:44:43;;;;;;;59.28;32.55;;;;;;;;;;4863413;29;20032;-87
2022/12/02 10:47:09;;;;;;;60.15;34.45;;;;;;;;;;4863647;29;20029;-86
2022/12/02 10:49:35;;;;;;;76.90;41.83;;;;;;;;;;4862600;29;20030;-86
2022/12/02 10:52:08;;;;;;;58.85;35.25;;;;;;;;;;4862693;29;20052;-86
2022/12/02 10:54:34;;;;;;;72.75;46.55;;;;;;;;;;4862873;29;20056;-85
2022/12/02 10:57:01;;;;;;;57.00;32.70;;;;;;;;;;4863024;29;20029;-86
2022/12/02 10:59:27;;;;;;;57.30;33.85;;;;;;;;;;4862544;29;20060;-87
2022/12/02 11:01:54;;;;;;;61.90;35.05;;;;;;;;;;4863690;29;20137;-87
2022/12/02 11:04:20;;;;;;;62.17;36.25;;;;;;;;;;4862870;29;20029;-86
2022/12/02 11:06:46;;;;;;;64.65;36.33;;;;;;;;;;4863660;29;20034;-86
2022/12/02 11:09:17;;;;;;;63.83;36.63;;;;;;;;;;4863502;29;20064;-88
2022/12/02 11:11:44;;;;;;;63.67;35.65;;;;;;;;;;4863217;29;20056;-86
2022/12/02 11:14:12;;;;;;;67.53;37.30;;;;;;;;;;4863744;29;20124;-88
2022/12/02 11:16:38;;;;;;;67.68;36.78;;;;;;;;;;4863915;29;20037;-86
2022/12/02 11:19:24;;;;;;;68.07;38.08;;;;;;;;;;4880111;29;20430;-91
2022/12/02 11:21:50;;;;;;;64.97;35.80;;;;;;;;;;4864378;29;20040;-90
2022/12/02 11:24:22;;;;;;;78.47;40.47;;;;;;;;;;4863091;29;20546;-87
2022/12/02 11:27:03;;;;;;;67.90;36.38;;;;;;;;;;4863137;29;20065;-87
2022/12/02 11:29:37;;;;;;;71.75;38.20;;;;;;;;;;4864169;29;20025;-88
2022/12/02 11:35:17;;;;;;;69.45;37.10;;;;;;;;;;4880539;29;20048;-89
2022/12/02 11:37:44;;;;;;;77.57;40.72;;;;;;;;;;4863457;29;20053;-87
2022/12/02 11:40:10;;;;;;;80.72;42.55;;;;;;;;;;4879463;29;20029;-88
2022/12/02 11:42:39;;;;;;;80.85;48.90;;;;;;;;;;4879513;29;20029;-88
2022/12/02 11:45:12;;;;;;;66.65;37.67;;;;;;;;;;4882653;29;20089;-90
2022/12/02 11:47:38;;;;;;;68.95;37.22;;;;;;;;;;4886791;29;20029;-89
2022/12/02 11:50:16;;;;;;;61.42;34.50;;;;;;;;;;4883570;29;20040;-89
2022/12/02 11:52:50;;;;;;;67.40;37.17;;;;;;;;;;4868973;29;20498;-87
2022/12/02 11:55:25;;;;;;;61.05;36.10;;;;;;;;;;4861599;29;20562;-88
2022/12/02 11:57:53;;;;;;;68.18;36.45;;;;;;;;;;4862671;29;20036;-88
2022/12/02 12:00:29;;;;;;;68.38;37.33;;;;;;;;;;4863638;29;20033;-87
2022/12/02 12:03:16;;;;;;;63.80;37.67;;;;;;;;;;4863289;29;20029;-89
2022/12/02 12:05:43;;;;;;;66.97;37.50;;;;;;;;;;4868150;29;20476;-88
2022/12/02 12:08:09;;;;;;;64.40;36.03;;;;;;;;;;4873973;29;20550;-87
2022/12/02 12:10:38;;;;;;;65.68;36.25;;;;;;;;;;4878860;29;20033;-88
2022/12/02 12:13:10;;;;;;;62.90;34.63;;;;;;;;;;4878513;29;20037;-87
2022/12/02 12:15:57;;;;;;;63.30;35.77;;;;;;;;;;4879776;29;20032;-87
2022/12/02 12:18:35;;;;;;;59.80;34.05;;;;;;;;;;4877897;29;20431;-87
2022/12/02 12:21:01;;;;;;;61.92;35.05;;;;;;;;;;4880813;29;20057;-90
2022/12/02 12:23:32;;;;;;;67.15;37.60;;;;;;;;;;4876845;29;20037;-87
2022/12/02 12:25:58;;;;;;;60.45;35.45;;;;;;;;;;4878425;29;20471;-88
2022/12/02 12:28:28;;;;;;;66.07;36.67;;;;;;;;;;4869225;29;20136;-90
2022/12/02 12:30:55;;;;;;;64.28;36.40;;;;;;;;;;4867038;29;20025;-91
2022/12/02 12:33:21;;;;;;;62.25;34.35;;;;;;;;;;4872977;29;20493;-91
2022/12/02 12:35:47;;;;;;;61.55;34.38;;;;;;;;;;4881916;29;20036;-89
2022/12/02 12:38:13;;;;;;;64.28;34.75;;;;;;;;;;4871480;29;20045;-89
2022/12/02 12:40:40;;;;;;;63.22;35.75;;;;;;;;;;4864028;29;20032;-91
2022/12/02 12:43:06;;;;;;;73.13;38.38;;;;;;;;;;4863758;29;20064;-89
2022/12/02 12:45:32;;;;;;;75.88;40.53;;;;;;;;;;4868907;29;20021;-92
2022/12/02 12:47:58;;;;;;;72.30;38.38;;;;;;;;;;4868557;29;20417;-92
2022/12/02 12:50:24;;;;;;;58.47;34.83;;;;;;;;;;4869339;29;20774;-90
2022/12/02 12:52:50;;;;;;;61.63;34.85;;;;;;;;;;4867124;29;20064;-91
2022/12/02 12:55:16;;;;;;;61.35;34.28;;;;;;;;;;4866851;29;20029;-90
2022/12/02 12:57:42;;;;;;;64.13;35.47;;;;;;;;;;4866992;29;20033;-86
2022/12/02 13:00:09;;;;;;;72.32;38.53;;;;;;;;;;4865772;29;20029;-87
2022/12/02 13:02:35;;;;;;;78.68;39.75;;;;;;;;;;4882594;29;20037;-87
2022/12/02 13:05:01;;;;;;;78.32;39.72;;;;;;;;;;4865321;29;20032;-87
2022/12/02 13:07:27;;;;;;;76.85;39.20;;;;;;;;;;4866195;29;20033;-87
2022/12/02 13:09:53;;;;;;;62.33;35.17;;;;;;;;;;4866174;29;20546;-86
2022/12/02 13:12:19;;;;;;;65.43;35.00;;;;;;;;;;4865731;29;20029;-86
2022/12/02 13:14:45;;;;;;;66.95;35.15;;;;;;;;;;4865993;29;20070;-87
2022/12/02 13:17:14;;;;;;;60.45;33.42;;;;;;;;;;4866036;29;20017;-92
2022/12/02 13:22:18;;;;;;;60.22;34.15;;;;;;;;;;4970874;23;20738;-89
2022/12/02 13:27:20;;;;;;;59.75;34.50;;;;;;;;;;5025930;23;20542;-88
2022/12/02 13:29:46;;;;;;;72.88;37.88;;;;;;;;;;4867281;29;20081;-88
2022/12/02 13:32:12;;;;;;;70.38;37.90;;;;;;;;;;4866095;29;20124;-88
2022/12/02 13:34:38;;;;;;;64.07;35.53;;;;;;;;;;4866647;29;20033;-90
2022/12/02 13:37:04;;;;;;;57.85;33.10;;;;;;;;;;4866182;29;20084;-88
2022/12/02 13:39:30;;;;;;;58.72;33.60;;;;;;;;;;4865599;29;20033;-89
2022/12/02 13:41:56;;;;;;;53.80;32.13;;;;;;;;;;4865463;29;20036;-88
2022/12/02 13:44:22;;;;;;;68.63;35.83;;;;;;;;;;4882313;29;20082;-88
2022/12/02 13:46:48;;;;;;;63.72;35.45;;;;;;;;;;4865805;29;20144;-89
2022/12/02 13:49:15;;;;;;;69.63;36.28;;;;;;;;;;4865672;29;20033;-89
2022/12/02 13:51:41;;;;;;;74.75;39.92;;;;;;;;;;4882515;29;20037;-88
2022/12/02 13:54:07;;;;;;;81.15;41.63;;;;;;;;;;4865658;29;20045;-89
2022/12/02 13:56:33;;;;;;;76.38;39.92;;;;;;;;;;4864560;29;20033;-88
2022/12/02 13:58:59;;;;;;;77.95;40.67;;;;;;;;;;4865669;29;20029;-90
2022/12/02 14:01:25;;;;;;;65.82;35.88;;;;;;;;;;4882435;29;20383;-89
2022/12/02 14:03:51;;;;;;;70.10;37.05;;;;;;;;;;4865609;29;20029;-88
2022/12/02 14:06:18;;;;;;;69.30;38.47;;;;;;;;;;4865657;29;20061;-89
2022/12/02 14:08:45;;;;;;;59.20;34.03;;;;;;;;;;4865346;29;20081;-89
2022/12/02 14:11:11;;;;;;;58.58;34.25;;;;;;;;;;4865254;29;20120;-88
2022/12/02 14:13:37;;;;;;;51.22;31.23;;;;;;;;;;4865299;29;20052;-90
2022/12/02 14:16:03;;;;;;;58.67;33.15;;;;;;;;;;4866074;29;20028;-90
2022/12/02 14:18:29;;;;;;;50.80;30.05;;;;;;;;;;4865052;29;20026;-91
2022/12/02 14:20:55;;;;;;;54.38;31.95;;;;;;;;;;4865364;29;20037;-90
2022/12/02 14:23:21;;;;;;;52.33;31.05;;;;;;;;;;4865212;29;20033;-88
2022/12/02 14:25:47;;;;;;;64.22;34.10;;;;;;;;;;4865145;29;20037;-88
2022/12/02 14:28:13;;;;;;;65.63;35.80;;;;;;;;;;4864821;29;20085;-90
2022/12/02 14:30:39;;;;;;;53.63;30.13;;;;;;;;;;4864663;29;20066;-89
2022/12/02 14:33:06;;;;;;;57.35;33.10;;;;;;;;;;4864777;29;20120;-88
2022/12/02 14:35:32;;;;;;;53.67;30.67;;;;;;;;;;4881397;29;20112;-89
2022/12/02 14:38:00;;;;;;;52.80;31.65;;;;;;;;;;4880218;29;20025;-89
2022/12/02 14:40:27;;;;;;;55.08;31.33;;;;;;;;;;4879848;29;20028;-90
2022/12/02 14:42:53;;;;;;;51.65;30.42;;;;;;;;;;4879672;29;20498;-90
2022/12/02 14:45:20;;;;;;;53.28;30.50;;;;;;;;;;4880197;29;20120;-88
2022/12/02 14:47:46;;;;;;;51.28;30.38;;;;;;;;;;4879946;29;20382;-92
2022/12/02 14:50:12;;;;;;;71.30;37.00;;;;;;;;;;4879506;29;20033;-89
2022/12/02 14:52:38;;;;;;;55.33;31.73;;;;;;;;;;4879775;29;20116;-87
2022/12/02 14:55:04;;;;;;;60.00;34.28;;;;;;;;;;4879748;29;20041;-88
2022/12/02 14:57:31;;;;;;;71.30;35.90;;;;;;;;;;4877342;29;20029;-87